KESN/ESN METAR and TAF weather

Enter ICAO airport designator
Station Type Date Time Source
KESN METAR 2021/05/14 06:15 UTC NOAA

KESN 140615Z AUTO 00000KT 10SM CLR 10/08 A3026 RMK AO2 T00980081


Station Type Date Time Source
KESN Decoded METAR 2021/05/14 06:15 UTC NOAA

Easton / Newman Field, MD, United States (KESN) 38-48N 076-04W
May 14, 2021 - 02:15 AM EDT / 2021.05.14 0615 UTC
Wind: Calm:0
Visibility: 10 mile(s):0
Sky conditions: clear
Temperature: 49.6 F (9.8 C)
Dew Point: 46.6 F (8.1 C)
Relative Humidity: 89%
Pressure (altimeter): 30.26 in. Hg (1024 hPa)
ob: KESN 140615Z AUTO 00000KT 10SM CLR 10/08 A3026 RMK AO2 T00980081
cycle: 6

Station Type Date Time Source
KESN TAF UTC NOAA

Error!

Example: see airport list